sensor_id;sensor_type;location;lat;lon;timestamp;temperature;humidity
68609;SHT31;55581;46.718;7.690;2023-06-19T00:00:03;19.10;66.98
68609;SHT31;55581;46.718;7.690;2023-06-19T00:02:33;19.02;67.28
68609;SHT31;55581;46.718;7.690;2023-06-19T00:04:58;19.02;67.61
68609;SHT31;55581;46.718;7.690;2023-06-19T00:07:23;18.96;67.03
68609;SHT31;55581;46.718;7.690;2023-06-19T00:09:52;18.93;67.23
68609;SHT31;55581;46.718;7.690;2023-06-19T00:12:17;18.89;67.31
68609;SHT31;55581;46.718;7.690;2023-06-19T00:14:43;18.86;67.45
68609;SHT31;55581;46.718;7.690;2023-06-19T00:17:10;18.81;67.88
68609;SHT31;55581;46.718;7.690;2023-06-19T00:19:38;18.78;67.93
68609;SHT31;55581;46.718;7.690;2023-06-19T00:22:04;18.72;68.28
68609;SHT31;55581;46.718;7.690;2023-06-19T00:24:29;18.76;68.43
68609;SHT31;55581;46.718;7.690;2023-06-19T00:26:54;18.72;68.59
68609;SHT31;55581;46.718;7.690;2023-06-19T00:29:27;18.68;68.36
68609;SHT31;55581;46.718;7.690;2023-06-19T00:31:53;18.68;68.33
68609;SHT31;55581;46.718;7.690;2023-06-19T00:34:19;18.68;68.33
68609;SHT31;55581;46.718;7.690;2023-06-19T00:36:44;18.68;68.01
68609;SHT31;55581;46.718;7.690;2023-06-19T00:39:10;18.71;68.46
68609;SHT31;55581;46.718;7.690;2023-06-19T00:41:36;18.76;68.10
68609;SHT31;55581;46.718;7.690;2023-06-19T00:44:01;18.68;68.38
68609;SHT31;55581;46.718;7.690;2023-06-19T00:46:29;18.73;68.42
68609;SHT31;55581;46.718;7.690;2023-06-19T00:48:55;18.81;67.65
68609;SHT31;55581;46.718;7.690;2023-06-19T00:51:23;18.84;67.63
68609;SHT31;55581;46.718;7.690;2023-06-19T00:53:48;18.96;68.02
68609;SHT31;55581;46.718;7.690;2023-06-19T00:56:14;18.96;67.73
68609;SHT31;55581;46.718;7.690;2023-06-19T00:58:43;18.91;67.97
68609;SHT31;55581;46.718;7.690;2023-06-19T01:01:09;18.96;68.02
68609;SHT31;55581;46.718;7.690;2023-06-19T01:03:35;19.02;68.29
68609;SHT31;55581;46.718;7.690;2023-06-19T01:06:02;19.05;68.79
68609;SHT31;55581;46.718;7.690;2023-06-19T01:08:49;19.02;69.04
68609;SHT31;55581;46.718;7.690;2023-06-19T01:11:21;19.00;69.66
68609;SHT31;55581;46.718;7.690;2023-06-19T01:13:52;19.00;69.56
68609;SHT31;55581;46.718;7.690;2023-06-19T01:16:21;18.93;68.58
68609;SHT31;55581;46.718;7.690;2023-06-19T01:18:48;18.91;68.62
68609;SHT31;55581;46.718;7.690;2023-06-19T01:21:18;18.95;68.28
68609;SHT31;55581;46.718;7.690;2023-06-19T01:23:44;18.98;68.60
68609;SHT31;55581;46.718;7.690;2023-06-19T01:26:11;18.99;68.51
68609;SHT31;55581;46.718;7.690;2023-06-19T01:28:39;18.99;69.58
68609;SHT31;55581;46.718;7.690;2023-06-19T01:32:03;18.98;69.06
68609;SHT31;55581;46.718;7.690;2023-06-19T01:34:08;18.98;69.43
68609;SHT31;55581;46.718;7.690;2023-06-19T01:36:35;18.92;69.62
68609;SHT31;55581;46.718;7.690;2023-06-19T01:39:04;18.84;70.11
68609;SHT31;55581;46.718;7.690;2023-06-19T01:41:30;18.92;69.75
68609;SHT31;55581;46.718;7.690;2023-06-19T01:43:57;18.93;69.68
68609;SHT31;55581;46.718;7.690;2023-06-19T01:46:23;18.93;69.42
68609;SHT31;55581;46.718;7.690;2023-06-19T01:48:49;18.92;69.62
68609;SHT31;55581;46.718;7.690;2023-06-19T01:51:14;18.95;69.08
68609;SHT31;55581;46.718;7.690;2023-06-19T01:53:40;19.00;69.01
68609;SHT31;55581;46.718;7.690;2023-06-19T01:56:06;18.95;69.41
68609;SHT31;55581;46.718;7.690;2023-06-19T01:58:32;18.98;69.40
68609;SHT31;55581;46.718;7.690;2023-06-19T02:00:58;18.98;69.45
68609;SHT31;55581;46.718;7.690;2023-06-19T02:03:23;18.98;69.39
68609;SHT31;55581;46.718;7.690;2023-06-19T02:05:51;18.99;69.57
68609;SHT31;55581;46.718;7.690;2023-06-19T02:08:16;19.00;69.18
68609;SHT31;55581;46.718;7.690;2023-06-19T02:10:42;19.02;69.13
68609;SHT31;55581;46.718;7.690;2023-06-19T02:13:07;19.07;69.10
68609;SHT31;55581;46.718;7.690;2023-06-19T02:15:33;18.96;69.30
68609;SHT31;55581;46.718;7.690;2023-06-19T02:17:59;19.00;68.96
68609;SHT31;55581;46.718;7.690;2023-06-19T02:20:25;18.92;69.41
68609;SHT31;55581;46.718;7.690;2023-06-19T02:22:51;19.02;70.30
68609;SHT31;55581;46.718;7.690;2023-06-19T02:25:16;18.98;70.39
68609;SHT31;55581;46.718;7.690;2023-06-19T02:27:42;18.98;72.77
68609;SHT31;55581;46.718;7.690;2023-06-19T02:30:07;19.00;72.65
68609;SHT31;55581;46.718;7.690;2023-06-19T02:32:33;19.00;74.03
68609;SHT31;55581;46.718;7.690;2023-06-19T02:34:58;19.06;72.85
68609;SHT31;55581;46.718;7.690;2023-06-19T02:37:24;19.02;73.44
68609;SHT31;55581;46.718;7.690;2023-06-19T02:39:51;18.98;73.51
68609;SHT31;55581;46.718;7.690;2023-06-19T02:42:17;18.98;72.53
68609;SHT31;55581;46.718;7.690;2023-06-19T02:44:43;18.99;71.96
68609;SHT31;55581;46.718;7.690;2023-06-19T02:47:08;18.82;72.35
68609;SHT31;55581;46.718;7.690;2023-06-19T02:49:34;18.81;73.56
68609;SHT31;55581;46.718;7.690;2023-06-19T02:51:59;18.88;73.80
68609;SHT31;55581;46.718;7.690;2023-06-19T02:54:25;18.92;74.19
68609;SHT31;55581;46.718;7.690;2023-06-19T02:56:50;19.00;73.85
68609;SHT31;55581;46.718;7.690;2023-06-19T02:59:16;18.99;73.87
68609;SHT31;55581;46.718;7.690;2023-06-19T03:01:41;18.96;73.36
68609;SHT31;55581;46.718;7.690;2023-06-19T03:04:07;18.88;72.24
68609;SHT31;55581;46.718;7.690;2023-06-19T03:06:32;18.89;71.99
68609;SHT31;55581;46.718;7.690;2023-06-19T03:09:04;18.93;72.40
68609;SHT31;55581;46.718;7.690;2023-06-19T03:11:30;18.89;73.82
68609;SHT31;55581;46.718;7.690;2023-06-19T03:13:56;18.93;74.96
68609;SHT31;55581;46.718;7.690;2023-06-19T03:16:21;18.95;76.43
68609;SHT31;55581;46.718;7.690;2023-06-19T03:18:47;18.92;76.36
68609;SHT31;55581;46.718;7.690;2023-06-19T03:21:19;18.81;75.85
68609;SHT31;55581;46.718;7.690;2023-06-19T03:23:44;18.65;77.48
68609;SHT31;55581;46.718;7.690;2023-06-19T03:26:10;18.57;78.60
68609;SHT31;55581;46.718;7.690;2023-06-19T03:28:38;18.47;78.48
68609;SHT31;55581;46.718;7.690;2023-06-19T03:31:03;18.34;78.29
68609;SHT31;55581;46.718;7.690;2023-06-19T03:33:29;18.26;78.17
68609;SHT31;55581;46.718;7.690;2023-06-19T03:35:55;18.24;79.05
68609;SHT31;55581;46.718;7.690;2023-06-19T03:38:20;18.23;79.81
68609;SHT31;55581;46.718;7.690;2023-06-19T03:40:46;18.23;81.98
68609;SHT31;55581;46.718;7.690;2023-06-19T03:43:11;18.29;81.32
68609;SHT31;55581;46.718;7.690;2023-06-19T03:45:37;18.06;82.31
68609;SHT31;55581;46.718;7.690;2023-06-19T03:48:02;18.04;83.63
68609;SHT31;55581;46.718;7.690;2023-06-19T03:50:28;17.99;85.65
68609;SHT31;55581;46.718;7.690;2023-06-19T03:52:53;18.02;86.65
68609;SHT31;55581;46.718;7.690;2023-06-19T03:55:19;18.06;84.66
68609;SHT31;55581;46.718;7.690;2023-06-19T03:57:44;18.04;85.12
68609;SHT31;55581;46.718;7.690;2023-06-19T04:00:13;17.96;85.74
68609;SHT31;55581;46.718;7.690;2023-06-19T04:02:40;17.89;87.35
68609;SHT31;55581;46.718;7.690;2023-06-19T04:05:06;17.79;88.15
68609;SHT31;55581;46.718;7.690;2023-06-19T04:07:32;17.66;88.67
68609;SHT31;55581;46.718;7.690;2023-06-19T04:09:58;17.76;87.74
68609;SHT31;55581;46.718;7.690;2023-06-19T04:12:24;17.85;86.00
68609;SHT31;55581;46.718;7.690;2023-06-19T04:14:52;17.85;86.74
68609;SHT31;55581;46.718;7.690;2023-06-19T04:17:20;17.87;85.99
68609;SHT31;55581;46.718;7.690;2023-06-19T04:19:48;17.86;85.89
68609;SHT31;55581;46.718;7.690;2023-06-19T04:22:13;17.87;84.99
68609;SHT31;55581;46.718;7.690;2023-06-19T04:24:39;17.85;87.53
68609;SHT31;55581;46.718;7.690;2023-06-19T04:27:04;17.99;84.23
68609;SHT31;55581;46.718;7.690;2023-06-19T04:29:33;17.96;86.18
68609;SHT31;55581;46.718;7.690;2023-06-19T04:32:01;18.07;85.29
68609;SHT31;55581;46.718;7.690;2023-06-19T04:34:39;17.97;85.59
68609;SHT31;55581;46.718;7.690;2023-06-19T04:37:05;17.97;87.61
68609;SHT31;55581;46.718;7.690;2023-06-19T04:39:30;17.96;86.35
68609;SHT31;55581;46.718;7.690;2023-06-19T04:41:55;17.99;87.04
68609;SHT31;55581;46.718;7.690;2023-06-19T04:44:22;17.96;87.30
68609;SHT31;55581;46.718;7.690;2023-06-19T04:46:48;17.97;85.26
68609;SHT31;55581;46.718;7.690;2023-06-19T04:49:13;17.99;84.67
68609;SHT31;55581;46.718;7.690;2023-06-19T04:51:41;17.96;87.43
68609;SHT31;55581;46.718;7.690;2023-06-19T04:54:09;17.89;88.77
68609;SHT31;55581;46.718;7.690;2023-06-19T04:56:36;17.93;89.14
68609;SHT31;55581;46.718;7.690;2023-06-19T04:59:04;17.99;87.89
68609;SHT31;55581;46.718;7.690;2023-06-19T05:01:29;17.92;87.59
68609;SHT31;55581;46.718;7.690;2023-06-19T05:03:55;17.86;89.48
68609;SHT31;55581;46.718;7.690;2023-06-19T05:06:24;17.69;89.88
68609;SHT31;55581;46.718;7.690;2023-06-19T05:08:50;17.78;89.75
68609;SHT31;55581;46.718;7.690;2023-06-19T05:11:16;17.75;90.74
68609;SHT31;55581;46.718;7.690;2023-06-19T05:13:41;17.82;89.66
68609;SHT31;55581;46.718;7.690;2023-06-19T05:16:06;17.79;90.40
68609;SHT31;55581;46.718;7.690;2023-06-19T05:18:32;17.85;88.99
68609;SHT31;55581;46.718;7.690;2023-06-19T05:20:58;17.86;88.19
68609;SHT31;55581;46.718;7.690;2023-06-19T05:23:23;17.93;89.86
68609;SHT31;55581;46.718;7.690;2023-06-19T05:25:49;17.92;90.00
68609;SHT31;55581;46.718;7.690;2023-06-19T05:28:17;17.96;90.00
68609;SHT31;55581;46.718;7.690;2023-06-19T05:30:43;18.00;90.88
68609;SHT31;55581;46.718;7.690;2023-06-19T05:33:10;18.13;91.35
68609;SHT31;55581;46.718;7.690;2023-06-19T05:35:41;18.23;90.14
68609;SHT31;55581;46.718;7.690;2023-06-19T05:38:06;18.37;88.80
68609;SHT31;55581;46.718;7.690;2023-06-19T05:40:32;18.54;86.46
68609;SHT31;55581;46.718;7.690;2023-06-19T05:42:57;18.71;84.84
68609;SHT31;55581;46.718;7.690;2023-06-19T05:45:26;18.82;87.01
68609;SHT31;55581;46.718;7.690;2023-06-19T05:47:52;18.89;83.44
68609;SHT31;55581;46.718;7.690;2023-06-19T05:50:17;18.96;81.59
68609;SHT31;55581;46.718;7.690;2023-06-19T05:52:42;19.10;81.99
68609;SHT31;55581;46.718;7.690;2023-06-19T05:55:09;19.16;81.94
68609;SHT31;55581;46.718;7.690;2023-06-19T05:57:35;19.22;81.80
68609;SHT31;55581;46.718;7.690;2023-06-19T06:00:01;19.24;81.52
68609;SHT31;55581;46.718;7.690;2023-06-19T06:02:26;19.31;80.48
68609;SHT31;55581;46.718;7.690;2023-06-19T06:04:53;19.41;80.14
68609;SHT31;55581;46.718;7.690;2023-06-19T06:07:19;19.50;80.29
68609;SHT31;55581;46.718;7.690;2023-06-19T06:09:46;19.40;82.36
68609;SHT31;55581;46.718;7.690;2023-06-19T06:12:12;19.46;82.54
68609;SHT31;55581;46.718;7.690;2023-06-19T06:14:40;19.54;82.57
68609;SHT31;55581;46.718;7.690;2023-06-19T06:17:08;19.60;81.85
68609;SHT31;55581;46.718;7.690;2023-06-19T06:19:33;19.64;81.67
68609;SHT31;55581;46.718;7.690;2023-06-19T06:21:59;19.62;82.94
68609;SHT31;55581;46.718;7.690;2023-06-19T06:24:24;19.64;84.66
68609;SHT31;55581;46.718;7.690;2023-06-19T06:26:52;19.75;82.80
68609;SHT31;55581;46.718;7.690;2023-06-19T06:29:18;19.77;85.02
68609;SHT31;55581;46.718;7.690;2023-06-19T06:31:47;19.78;84.63
68609;SHT31;55581;46.718;7.690;2023-06-19T06:34:13;19.77;85.10
68609;SHT31;55581;46.718;7.690;2023-06-19T06:36:41;19.88;80.96
68609;SHT31;55581;46.718;7.690;2023-06-19T06:39:06;20.22;83.04
68609;SHT31;55581;46.718;7.690;2023-06-19T06:41:32;20.34;82.48
68609;SHT31;55581;46.718;7.690;2023-06-19T06:43:57;20.57;78.59
68609;SHT31;55581;46.718;7.690;2023-06-19T06:46:24;20.79;81.11
68609;SHT31;55581;46.718;7.690;2023-06-19T06:48:50;20.87;79.17
68609;SHT31;55581;46.718;7.690;2023-06-19T06:51:18;21.05;79.53
68609;SHT31;55581;46.718;7.690;2023-06-19T06:53:43;20.98;78.73
68609;SHT31;55581;46.718;7.690;2023-06-19T06:56:14;21.26;80.45
68609;SHT31;55581;46.718;7.690;2023-06-19T06:58:40;21.37;81.41
68609;SHT31;55581;46.718;7.690;2023-06-19T07:01:06;21.39;80.31
68609;SHT31;55581;46.718;7.690;2023-06-19T07:03:34;21.29;78.68
68609;SHT31;55581;46.718;7.690;2023-06-19T07:06:00;21.44;80.65
68609;SHT31;55581;46.718;7.690;2023-06-19T07:08:27;21.19;81.13
68609;SHT31;55581;46.718;7.690;2023-06-19T07:10:53;21.22;82.35
68609;SHT31;55581;46.718;7.690;2023-06-19T07:13:18;21.23;81.73
68609;SHT31;55581;46.718;7.690;2023-06-19T07:15:44;21.13;82.12
68609;SHT31;55581;46.718;7.690;2023-06-19T07:18:09;21.20;82.59
68609;SHT31;55581;46.718;7.690;2023-06-19T07:20:35;21.25;77.03
68609;SHT31;55581;46.718;7.690;2023-06-19T07:23:03;21.37;72.01
68609;SHT31;55581;46.718;7.690;2023-06-19T07:25:29;21.26;73.95
68609;SHT31;55581;46.718;7.690;2023-06-19T07:27:57;21.53;78.67
68609;SHT31;55581;46.718;7.690;2023-06-19T07:30:23;21.37;78.19
68609;SHT31;55581;46.718;7.690;2023-06-19T07:32:50;21.34;74.23
68609;SHT31;55581;46.718;7.690;2023-06-19T07:35:15;21.71;78.55
68609;SHT31;55581;46.718;7.690;2023-06-19T07:37:41;22.05;76.81
68609;SHT31;55581;46.718;7.690;2023-06-19T07:40:06;22.16;73.86
68609;SHT31;55581;46.718;7.690;2023-06-19T07:42:32;22.29;71.28
68609;SHT31;55581;46.718;7.690;2023-06-19T07:44:57;22.53;73.93
68609;SHT31;55581;46.718;7.690;2023-06-19T07:47:23;22.49;72.70
68609;SHT31;55581;46.718;7.690;2023-06-19T07:49:50;22.60;73.30
68609;SHT31;55581;46.718;7.690;2023-06-19T07:52:15;22.39;75.03
68609;SHT31;55581;46.718;7.690;2023-06-19T07:54:56;22.65;73.59
68609;SHT31;55581;46.718;7.690;2023-06-19T07:57:24;22.30;74.53
68609;SHT31;55581;46.718;7.690;2023-06-19T07:59:53;22.12;73.77
68609;SHT31;55581;46.718;7.690;2023-06-19T08:02:21;22.22;74.64
68609;SHT31;55581;46.718;7.690;2023-06-19T08:04:46;22.05;72.37
68609;SHT31;55581;46.718;7.690;2023-06-19T08:07:12;22.25;74.95
68609;SHT31;55581;46.718;7.690;2023-06-19T08:09:37;22.30;74.78
68609;SHT31;55581;46.718;7.690;2023-06-19T08:12:03;22.35;73.37
68609;SHT31;55581;46.718;7.690;2023-06-19T08:14:31;22.54;70.74
68609;SHT31;55581;46.718;7.690;2023-06-19T08:16:56;22.65;69.01
68609;SHT31;55581;46.718;7.690;2023-06-19T08:19:22;22.95;66.60
68609;SHT31;55581;46.718;7.690;2023-06-19T08:21:47;23.19;64.75
68609;SHT31;55581;46.718;7.690;2023-06-19T08:24:13;23.30;64.02
68609;SHT31;55581;46.718;7.690;2023-06-19T08:26:38;23.57;65.29
68609;SHT31;55581;46.718;7.690;2023-06-19T08:29:04;23.80;66.82
68609;SHT31;55581;46.718;7.690;2023-06-19T08:31:29;23.93;62.04
68609;SHT31;55581;46.718;7.690;2023-06-19T08:33:55;24.08;61.84
68609;SHT31;55581;46.718;7.690;2023-06-19T08:36:23;24.35;58.26
68609;SHT31;55581;46.718;7.690;2023-06-19T08:38:49;24.29;57.84
68609;SHT31;55581;46.718;7.690;2023-06-19T08:41:19;24.45;57.82
68609;SHT31;55581;46.718;7.690;2023-06-19T08:43:47;24.56;58.33
68609;SHT31;55581;46.718;7.690;2023-06-19T08:46:16;24.70;59.95
68609;SHT31;55581;46.718;7.690;2023-06-19T08:48:45;24.80;59.94
68609;SHT31;55581;46.718;7.690;2023-06-19T08:51:11;25.17;60.25
68609;SHT31;55581;46.718;7.690;2023-06-19T08:53:54;25.25;57.98
68609;SHT31;55581;46.718;7.690;2023-06-19T08:56:20;25.17;55.71
68609;SHT31;55581;46.718;7.690;2023-06-19T08:58:45;25.32;55.26
68609;SHT31;55581;46.718;7.690;2023-06-19T09:01:11;25.39;55.71
68609;SHT31;55581;46.718;7.690;2023-06-19T09:03:38;25.59;55.57
68609;SHT31;55581;46.718;7.690;2023-06-19T09:06:06;25.63;53.18
68609;SHT31;55581;46.718;7.690;2023-06-19T09:08:34;25.80;53.11
68609;SHT31;55581;46.718;7.690;2023-06-19T09:11:05;26.07;52.55
68609;SHT31;55581;46.718;7.690;2023-06-19T09:13:31;25.89;50.26
68609;SHT31;55581;46.718;7.690;2023-06-19T09:16:07;25.98;52.16
68609;SHT31;55581;46.718;7.690;2023-06-19T09:18:47;26.27;52.34
68609;SHT31;55581;46.718;7.690;2023-06-19T09:21:21;26.38;50.88
68609;SHT31;55581;46.718;7.690;2023-06-19T09:23:52;26.58;51.28
68609;SHT31;55581;46.718;7.690;2023-06-19T09:26:17;26.69;50.86
68609;SHT31;55581;46.718;7.690;2023-06-19T09:28:45;26.69;49.81
68609;SHT31;55581;46.718;7.690;2023-06-19T09:31:10;26.68;50.08
68609;SHT31;55581;46.718;7.690;2023-06-19T09:33:37;26.59;49.77
68609;SHT31;55581;46.718;7.690;2023-06-19T09:36:04;26.76;51.01
68609;SHT31;55581;46.718;7.690;2023-06-19T09:38:32;26.60;51.15
68609;SHT31;55581;46.718;7.690;2023-06-19T09:41:01;26.90;51.11
68609;SHT31;55581;46.718;7.690;2023-06-19T09:43:38;26.82;55.48
68609;SHT31;55581;46.718;7.690;2023-06-19T09:46:08;26.76;52.50
68609;SHT31;55581;46.718;7.690;2023-06-19T09:48:35;26.69;52.77
68609;SHT31;55581;46.718;7.690;2023-06-19T09:51:09;26.68;50.71
68609;SHT31;55581;46.718;7.690;2023-06-19T09:53:36;26.69;50.40
68609;SHT31;55581;46.718;7.690;2023-06-19T09:56:02;26.80;50.93
68609;SHT31;55581;46.718;7.690;2023-06-19T09:58:27;27.11;50.50
68609;SHT31;55581;46.718;7.690;2023-06-19T10:00:58;27.18;50.49
68609;SHT31;55581;46.718;7.690;2023-06-19T10:03:32;27.10;50.45
68609;SHT31;55581;46.718;7.690;2023-06-19T10:06:04;27.10;49.70
68609;SHT31;55581;46.718;7.690;2023-06-19T10:08:43;27.27;49.95
68609;SHT31;55581;46.718;7.690;2023-06-19T10:11:11;27.68;49.84
68609;SHT31;55581;46.718;7.690;2023-06-19T10:13:40;27.49;49.67
68609;SHT31;55581;46.718;7.690;2023-06-19T10:16:06;27.62;49.11
68609;SHT31;55581;46.718;7.690;2023-06-19T10:18:32;27.48;49.53
68609;SHT31;55581;46.718;7.690;2023-06-19T10:21:00;27.45;48.63
68609;SHT31;55581;46.718;7.690;2023-06-19T10:23:27;27.30;48.74
68609;SHT31;55581;46.718;7.690;2023-06-19T10:28:30;27.21;49.69
68609;SHT31;55581;46.718;7.690;2023-06-19T10:31:02;27.44;49.34
68609;SHT31;55581;46.718;7.690;2023-06-19T10:33:33;27.65;49.26
68609;SHT31;55581;46.718;7.690;2023-06-19T10:36:00;28.03;48.91
68609;SHT31;55581;46.718;7.690;2023-06-19T10:38:28;28.21;48.39
68609;SHT31;55581;46.718;7.690;2023-06-19T10:40:54;28.44;48.30
68609;SHT31;55581;46.718;7.690;2023-06-19T10:43:24;28.78;48.37
68609;SHT31;55581;46.718;7.690;2023-06-19T10:45:52;29.07;48.21
68609;SHT31;55581;46.718;7.690;2023-06-19T10:48:23;28.99;49.33
68609;SHT31;55581;46.718;7.690;2023-06-19T10:50:49;29.43;45.62
68609;SHT31;55581;46.718;7.690;2023-06-19T10:53:29;29.49;47.48
68609;SHT31;55581;46.718;7.690;2023-06-19T10:55:56;29.50;46.32
68609;SHT31;55581;46.718;7.690;2023-06-19T10:58:22;29.49;46.02
68609;SHT31;55581;46.718;7.690;2023-06-19T11:00:51;28.79;48.81
68609;SHT31;55581;46.718;7.690;2023-06-19T11:03:19;28.94;47.48
68609;SHT31;55581;46.718;7.690;2023-06-19T11:05:45;28.83;46.23
68609;SHT31;55581;46.718;7.690;2023-06-19T11:08:17;28.79;48.89
68609;SHT31;55581;46.718;7.690;2023-06-19T11:10:43;29.03;46.67
68609;SHT31;55581;46.718;7.690;2023-06-19T11:13:14;29.19;45.57
68609;SHT31;55581;46.718;7.690;2023-06-19T11:15:39;29.26;46.48
68609;SHT31;55581;46.718;7.690;2023-06-19T11:18:05;28.89;46.43
68609;SHT31;55581;46.718;7.690;2023-06-19T11:20:30;29.03;45.79
68609;SHT31;55581;46.718;7.690;2023-06-19T11:23:01;29.16;45.16
68609;SHT31;55581;46.718;7.690;2023-06-19T11:25:40;28.92;46.45
68609;SHT31;55581;46.718;7.690;2023-06-19T11:28:12;28.39;47.88
68609;SHT31;55581;46.718;7.690;2023-06-19T11:30:39;28.71;48.08
68609;SHT31;55581;46.718;7.690;2023-06-19T11:33:18;28.51;46.14
68609;SHT31;55581;46.718;7.690;2023-06-19T11:35:51;28.28;48.13
68609;SHT31;55581;46.718;7.690;2023-06-19T11:38:21;28.05;48.45
68609;SHT31;55581;46.718;7.690;2023-06-19T11:40:47;27.93;48.56
68609;SHT31;55581;46.718;7.690;2023-06-19T11:43:27;28.03;49.76
68609;SHT31;55581;46.718;7.690;2023-06-19T11:46:07;28.10;48.92
68609;SHT31;55581;46.718;7.690;2023-06-19T11:48:36;27.72;49.36
68609;SHT31;55581;46.718;7.690;2023-06-19T11:51:02;27.59;50.48
68609;SHT31;55581;46.718;7.690;2023-06-19T11:53:27;27.49;50.54
68609;SHT31;55581;46.718;7.690;2023-06-19T11:55:53;27.63;50.48
68609;SHT31;55581;46.718;7.690;2023-06-19T11:58:18;27.68;49.50
68609;SHT31;55581;46.718;7.690;2023-06-19T12:00:48;27.65;50.68
68609;SHT31;55581;46.718;7.690;2023-06-19T12:03:15;27.81;49.34
68609;SHT31;55581;46.718;7.690;2023-06-19T12:05:43;27.59;50.90
68609;SHT31;55581;46.718;7.690;2023-06-19T12:08:08;27.34;50.14
68609;SHT31;55581;46.718;7.690;2023-06-19T12:10:35;27.38;50.50
68609;SHT31;55581;46.718;7.690;2023-06-19T12:13:01;27.37;50.41
68609;SHT31;55581;46.718;7.690;2023-06-19T12:15:27;27.21;50.22
68609;SHT31;55581;46.718;7.690;2023-06-19T12:17:53;27.30;49.98
68609;SHT31;55581;46.718;7.690;2023-06-19T12:20:18;27.42;50.99
68609;SHT31;55581;46.718;7.690;2023-06-19T12:22:46;27.37;50.98
68609;SHT31;55581;46.718;7.690;2023-06-19T12:25:11;27.42;50.52
68609;SHT31;55581;46.718;7.690;2023-06-19T12:27:38;27.69;51.68
68609;SHT31;55581;46.718;7.690;2023-06-19T12:30:04;27.93;50.41
68609;SHT31;55581;46.718;7.690;2023-06-19T12:32:31;28.10;49.94
68609;SHT31;55581;46.718;7.690;2023-06-19T12:34:57;28.31;50.31
68609;SHT31;55581;46.718;7.690;2023-06-19T12:37:22;28.30;50.16
68609;SHT31;55581;46.718;7.690;2023-06-19T12:39:49;28.27;50.67
68609;SHT31;55581;46.718;7.690;2023-06-19T12:42:15;27.97;50.22
68609;SHT31;55581;46.718;7.690;2023-06-19T12:44:43;27.70;52.28
68609;SHT31;55581;46.718;7.690;2023-06-19T12:47:11;27.61;52.97
68609;SHT31;55581;46.718;7.690;2023-06-19T12:49:37;27.45;53.40
68609;SHT31;55581;46.718;7.690;2023-06-19T12:52:02;27.24;57.22
68609;SHT31;55581;46.718;7.690;2023-06-19T12:54:28;27.27;60.23
68609;SHT31;55581;46.718;7.690;2023-06-19T12:56:53;27.21;65.54
68609;SHT31;55581;46.718;7.690;2023-06-19T12:59:20;27.20;62.70
68609;SHT31;55581;46.718;7.690;2023-06-19T13:01:46;27.30;58.43
68609;SHT31;55581;46.718;7.690;2023-06-19T13:04:12;27.86;60.64
68609;SHT31;55581;46.718;7.690;2023-06-19T13:06:40;28.41;58.77
68609;SHT31;55581;46.718;7.690;2023-06-19T13:09:06;28.99;57.12
68609;SHT31;55581;46.718;7.690;2023-06-19T13:11:32;29.57;52.80
68609;SHT31;55581;46.718;7.690;2023-06-19T13:13:59;29.85;51.66
68609;SHT31;55581;46.718;7.690;2023-06-19T13:16:26;30.22;49.55
68609;SHT31;55581;46.718;7.690;2023-06-19T13:18:51;30.29;47.18
68609;SHT31;55581;46.718;7.690;2023-06-19T13:21:17;30.15;47.51
68609;SHT31;55581;46.718;7.690;2023-06-19T13:23:42;30.26;48.51
68609;SHT31;55581;46.718;7.690;2023-06-19T13:26:08;30.45;47.21
68609;SHT31;55581;46.718;7.690;2023-06-19T13:28:37;30.45;47.66
68609;SHT31;55581;46.718;7.690;2023-06-19T13:31:05;30.25;47.91
68609;SHT31;55581;46.718;7.690;2023-06-19T13:33:33;29.86;48.56
68609;SHT31;55581;46.718;7.690;2023-06-19T13:35:58;29.77;48.55
68609;SHT31;55581;46.718;7.690;2023-06-19T13:38:24;29.46;48.75
68609;SHT31;55581;46.718;7.690;2023-06-19T13:40:49;29.29;49.08
68609;SHT31;55581;46.718;7.690;2023-06-19T13:43:17;29.30;49.02
68609;SHT31;55581;46.718;7.690;2023-06-19T13:45:45;29.47;47.83
68609;SHT31;55581;46.718;7.690;2023-06-19T13:48:10;29.79;47.02
68609;SHT31;55581;46.718;7.690;2023-06-19T13:50:35;29.74;45.76
68609;SHT31;55581;46.718;7.690;2023-06-19T13:53:02;29.75;47.51
68609;SHT31;55581;46.718;7.690;2023-06-19T13:55:29;29.85;45.58
68609;SHT31;55581;46.718;7.690;2023-06-19T13:57:55;29.55;46.45
68609;SHT31;55581;46.718;7.690;2023-06-19T14:00:21;29.65;46.65
68609;SHT31;55581;46.718;7.690;2023-06-19T14:02:46;29.26;50.99
68609;SHT31;55581;46.718;7.690;2023-06-19T14:05:15;29.35;50.10
68609;SHT31;55581;46.718;7.690;2023-06-19T14:07:41;28.95;50.58
68609;SHT31;55581;46.718;7.690;2023-06-19T14:10:09;28.60;54.36
68609;SHT31;55581;46.718;7.690;2023-06-19T14:12:35;28.21;56.25
68609;SHT31;55581;46.718;7.690;2023-06-19T14:15:00;27.79;56.80
68609;SHT31;55581;46.718;7.690;2023-06-19T14:17:26;27.35;58.13
68609;SHT31;55581;46.718;7.690;2023-06-19T14:19:51;27.00;60.16
68609;SHT31;55581;46.718;7.690;2023-06-19T14:22:17;27.08;56.99
68609;SHT31;55581;46.718;7.690;2023-06-19T14:24:43;27.24;54.39
68609;SHT31;55581;46.718;7.690;2023-06-19T14:27:09;27.27;54.59
68609;SHT31;55581;46.718;7.690;2023-06-19T14:29:36;27.31;55.37
68609;SHT31;55581;46.718;7.690;2023-06-19T14:32:02;27.27;54.18
68609;SHT31;55581;46.718;7.690;2023-06-19T14:34:28;27.23;53.68
68609;SHT31;55581;46.718;7.690;2023-06-19T14:36:54;27.33;55.67
68609;SHT31;55581;46.718;7.690;2023-06-19T14:39:20;27.38;55.92
68609;SHT31;55581;46.718;7.690;2023-06-19T14:41:46;27.62;55.35
68609;SHT31;55581;46.718;7.690;2023-06-19T14:44:12;27.86;55.37
68609;SHT31;55581;46.718;7.690;2023-06-19T14:46:37;28.44;53.88
68609;SHT31;55581;46.718;7.690;2023-06-19T14:49:10;28.64;51.66
68609;SHT31;55581;46.718;7.690;2023-06-19T14:51:38;28.82;49.62
68609;SHT31;55581;46.718;7.690;2023-06-19T14:54:03;29.22;47.13
68609;SHT31;55581;46.718;7.690;2023-06-19T14:56:29;29.29;46.43
68609;SHT31;55581;46.718;7.690;2023-06-19T14:58:55;29.12;45.81
68609;SHT31;55581;46.718;7.690;2023-06-19T15:01:20;29.07;46.27
68609;SHT31;55581;46.718;7.690;2023-06-19T15:03:46;29.30;46.38
68609;SHT31;55581;46.718;7.690;2023-06-19T15:06:12;29.41;45.84
68609;SHT31;55581;46.718;7.690;2023-06-19T15:08:37;29.53;44.28
68609;SHT31;55581;46.718;7.690;2023-06-19T15:11:04;29.22;47.87
68609;SHT31;55581;46.718;7.690;2023-06-19T15:13:30;29.31;49.05
68609;SHT31;55581;46.718;7.690;2023-06-19T15:15:56;29.26;48.48
68609;SHT31;55581;46.718;7.690;2023-06-19T15:18:23;29.16;47.97
68609;SHT31;55581;46.718;7.690;2023-06-19T15:20:49;29.02;48.00
68609;SHT31;55581;46.718;7.690;2023-06-19T15:23:14;29.29;48.36
68609;SHT31;55581;46.718;7.690;2023-06-19T15:25:40;29.71;47.07
68609;SHT31;55581;46.718;7.690;2023-06-19T15:28:05;29.78;45.94
68609;SHT31;55581;46.718;7.690;2023-06-19T15:30:30;29.77;46.96